Rechercher aéroport 
image banner adimage banner adimage banner ad
image banner ad

7CA8 - Eisenhower Medical Center

Situé à Rancho Mirage, United States

ICAO - 7CA8, IATA -

Données fournies par Airmate  

Information générale

Coordonnées: N33°45'51" W116°24'18"
Élévation : 234 feet MSL.
Variation magnétique : 13° East
Voir autres Aéroports à California

Données opérationnelles

Special qualification required
Heure actuelle UTC:
Heure actuelle locale:
Météo à : KPSP - Palm Springs Intl ( 12 km )
METAR: KPSP 251253Z 34007KT 10SM CLR 29/13 A2990 RMK AO2 SLP121 T02890133
TAF: KPSP 251141Z 2512/2612 VRB06KT P6SM BKN120 FM251600 10012KT P6SM BKN120 FM252100 11012KT P6SM VCTS BKN070CB BKN100 FM260200 VRB06KT P6SM VCTS BKN060CB BKN100
Voir NOTAMs / SUP AIP / TFR affectant cet aéroport [VIEW]
Fréquences de communication: [VIEW]

Pistes:

Coordonnées de l'aéroport

Adresse: Rancho Mirage United States

Vue satellite de 7CA8